Time;durP1;ratioP1;P1;durP2;ratioP2;P2;SDS_P1;SDS_P2;PMS_P1;PMS_P2;Temp;Humidity;BMP_temperature;BMP_pressure;BME280_temperature;BME280_humidity;BME280_pressure;Samples;Min_cycle;Max_cycle;Signal;HPM_P1;HPM_P2
2022/03/24 00:02:04;;;;;;;20.73;1.27;;;8.00;81.50;;;;;;4403313;32;20106;-60
2022/03/24 00:04:29;;;;;;;3.28;2.53;;;8.00;81.40;;;;;;4386780;32;20124;-60
2022/03/24 00:06:55;;;;;;;3.42;2.55;;;8.10;81.40;;;;;;4389765;32;20096;-60
2022/03/24 00:09:20;;;;;;;6.25;1.02;;;8.10;81.90;;;;;;4403653;32;20127;-60
2022/03/24 00:11:47;;;;;;;3.25;1.33;;;8.10;81.80;;;;;;4390246;32;20483;-60
2022/03/24 00:15:53;;;;;;;2.58;1.48;;;8.10;82.50;;;;;;4402138;32;20082;-61
2022/03/24 00:17:38;;;;;;;2.65;1.55;;;8.10;84.20;;;;;;4381848;32;20164;-60
2022/03/24 00:20:05;;;;;;;3.85;2.12;;;8.10;83.00;;;;;;4400524;32;20089;-60
2022/03/24 00:22:30;;;;;;;3.45;1.95;;;8.00;82.90;;;;;;4394171;32;20192;-60
2022/03/24 00:24:57;;;;;;;1.50;1.15;;;8.00;83.60;;;;;;4401837;32;20090;-60
2022/03/24 00:27:23;;;;;;;1.35;1.15;;;7.90;83.80;;;;;;4377061;32;20120;-60
2022/03/24 00:29:48;;;;;;;11.02;2.25;;;7.90;83.60;;;;;;4390282;32;20146;-60
2022/03/24 00:32:14;;;;;;;5.62;2.65;;;7.80;84.00;;;;;;4399611;32;20541;-63
2022/03/24 00:34:40;;;;;;;12.55;1.92;;;7.80;84.40;;;;;;4401981;32;20152;-61
2022/03/24 00:37:06;;;;;;;7.78;2.67;;;7.80;84.10;;;;;;4400423;32;20069;-60
2022/03/24 00:39:33;;;;;;;3.33;0.82;;;7.80;84.00;;;;;;4387456;32;20096;-60
2022/03/24 00:42:00;;;;;;;3.45;2.33;;;7.60;85.60;;;;;;4387739;32;20078;-60
2022/03/24 00:44:27;;;;;;;1.58;1.48;;;7.40;85.40;;;;;;4385221;32;20082;-60
2022/03/24 00:46:52;;;;;;;6.22;3.35;;;7.40;86.40;;;;;;4401664;32;20094;-60
2022/03/24 00:49:18;;;;;;;4.95;2.45;;;7.50;85.80;;;;;;4388818;32;20174;-60
2022/03/24 00:51:44;;;;;;;2.37;1.65;;;7.60;85.70;;;;;;4400467;32;20114;-60
2022/03/24 00:54:10;;;;;;;5.65;2.72;;;7.50;86.10;;;;;;4385717;32;20082;-60
2022/03/24 00:56:35;;;;;;;9.15;1.77;;;7.40;86.20;;;;;;4403971;32;20105;-62
2022/03/24 00:59:01;;;;;;;3.12;2.12;;;7.50;86.10;;;;;;4403495;32;20057;-60
2022/03/24 01:01:26;;;;;;;8.02;1.77;;;7.30;87.70;;;;;;4386041;32;20538;-60
2022/03/24 01:03:52;;;;;;;2.05;1.50;;;7.20;87.70;;;;;;4398924;32;20630;-60
2022/03/24 01:06:18;;;;;;;3.10;1.85;;;7.10;88.50;;;;;;4404639;32;20086;-60
2022/03/24 01:08:44;;;;;;;7.82;2.22;;;7.10;88.90;;;;;;4403041;32;20069;-60
2022/03/24 01:11:10;;;;;;;2.40;1.62;;;7.10;89.50;;;;;;4386914;32;20153;-60
2022/03/24 01:13:37;;;;;;;5.00;1.98;;;6.80;90.60;;;;;;4401204;32;20180;-60
2022/03/24 01:16:03;;;;;;;2.35;1.35;;;6.70;90.90;;;;;;4399878;32;20129;-59
2022/03/24 01:18:32;;;;;;;3.35;1.35;;;6.70;91.20;;;;;;4387957;32;20117;-60
2022/03/24 01:21:00;;;;;;;4.43;1.98;;;6.80;90.50;;;;;;4402558;32;20070;-60
2022/03/24 01:23:26;;;;;;;2.35;1.95;;;6.70;91.60;;;;;;4403138;32;20137;-60
2022/03/24 01:25:54;;;;;;;3.72;2.08;;;6.80;91.10;;;;;;4399609;32;20097;-60
2022/03/24 01:28:20;;;;;;;4.53;2.40;;;6.90;90.70;;;;;;4400724;32;20145;-60
2022/03/24 01:30:46;;;;;;;1.08;1.00;;;6.70;91.10;;;;;;4390170;32;20118;-60
2022/03/24 01:33:11;;;;;;;2.10;1.20;;;6.70;91.10;;;;;;4394958;32;20521;-60
2022/03/24 01:35:37;;;;;;;2.08;1.45;;;6.50;92.00;;;;;;4402039;32;20058;-59
2022/03/24 01:38:03;;;;;;;4.30;2.15;;;6.50;92.40;;;;;;4401554;32;20061;-55
2022/03/24 01:40:28;;;;;;;1.70;1.58;;;6.60;92.40;;;;;;4388781;32;20070;-58
2022/03/24 01:42:55;;;;;;;2.47;1.62;;;6.40;93.50;;;;;;4401927;32;20117;-58
2022/03/24 01:45:21;;;;;;;2.10;1.55;;;6.20;93.90;;;;;;4401665;32;20144;-59
2022/03/24 01:47:46;;;;;;;4.28;1.98;;;6.10;94.50;;;;;;4403120;32;20062;-59
2022/03/24 01:50:12;;;;;;;3.80;1.85;;;6.10;94.80;;;;;;4403489;32;20489;-60
2022/03/24 01:52:38;;;;;;;7.53;3.75;;;6.00;94.90;;;;;;4390865;32;20156;-60
2022/03/24 01:55:06;;;;;;;1.37;1.23;;;6.00;95.40;;;;;;4392392;32;20103;-60
2022/03/24 01:57:32;;;;;;;2.55;1.77;;;5.80;96.00;;;;;;4403522;32;20085;-60
2022/03/24 02:00:00;;;;;;;2.55;1.45;;;6.00;96.00;;;;;;4407204;32;20475;-60
2022/03/24 02:02:26;;;;;;;1.65;1.40;;;6.20;95.20;;;;;;4392254;32;20062;-60
2022/03/24 02:04:52;;;;;;;1.27;1.20;;;6.40;94.90;;;;;;4404557;32;20169;-59
2022/03/24 02:07:17;;;;;;;1.85;0.93;;;6.40;94.60;;;;;;4389811;32;20083;-59
2022/03/24 02:09:43;;;;;;;0.80;0.80;;;6.40;94.60;;;;;;4403517;32;20062;-59
2022/03/24 02:12:11;;;;;;;1.20;1.12;;;6.30;95.20;;;;;;4403446;32;20149;-60
2022/03/24 02:14:39;;;;;;;1.17;1.10;;;6.30;95.80;;;;;;4402230;32;20100;-60
2022/03/24 02:17:05;;;;;;;3.80;1.55;;;6.10;96.30;;;;;;4388702;32;20446;-60
2022/03/24 02:19:31;;;;;;;2.25;1.35;;;5.80;97.30;;;;;;4403206;32;20808;-59
2022/03/24 02:22:05;;;;;;;1.00;1.00;;;5.70;97.70;;;;;;4389771;32;20074;-60
2022/03/24 02:24:31;;;;;;;3.85;1.95;;;5.60;97.90;;;;;;4399728;32;20144;-60
2022/03/24 02:26:59;;;;;;;1.67;1.58;;;5.60;98.20;;;;;;4404560;32;20505;-61
2022/03/24 02:29:25;;;;;;;2.08;1.23;;;5.70;97.90;;;;;;4403274;32;20061;-59
2022/03/24 02:31:51;;;;;;;1.15;1.05;;;6.00;97.40;;;;;;4400065;32;20058;-61
2022/03/24 02:34:52;;;;;;;1.75;1.48;;;6.10;96.90;;;;;;4402833;32;20093;-61
2022/03/24 02:37:09;;;;;;;6.20;2.42;;;6.10;96.80;;;;;;4385674;32;20089;-61
2022/03/24 02:39:36;;;;;;;12.63;2.97;;;6.10;96.60;;;;;;4394227;32;20144;-60
2022/03/24 02:42:03;;;;;;;1.37;1.27;;;6.10;96.80;;;;;;4391462;32;20082;-60
2022/03/24 02:44:31;;;;;;;1.52;1.25;;;6.10;96.80;;;;;;4389780;32;20462;-60
2022/03/24 02:46:59;;;;;;;1.52;1.35;;;5.90;97.10;;;;;;4387321;32;20065;-60
2022/03/24 02:49:27;;;;;;;4.78;1.62;;;5.70;97.90;;;;;;4403407;32;20087;-60
2022/03/24 02:51:53;;;;;;;1.62;1.52;;;5.70;98.20;;;;;;4390083;32;20062;-60
2022/03/24 02:54:20;;;;;;;3.12;2.35;;;5.70;98.10;;;;;;4392498;32;20066;-61
2022/03/24 02:56:46;;;;;;;1.62;1.23;;;5.60;98.60;;;;;;4395629;32;20061;-60
2022/03/24 02:59:13;;;;;;;0.70;0.70;;;5.20;99.60;;;;;;4389749;32;20161;-60
2022/03/24 03:01:42;;;;;;;4.28;1.10;;;5.10;99.90;;;;;;4389806;32;20475;-61
2022/03/24 03:04:08;;;;;;;2.65;1.10;;;5.00;99.90;;;;;;4404399;32;20414;-61
2022/03/24 03:06:35;;;;;;;5.50;2.37;;;5.30;99.90;;;;;;4402044;32;20074;-60
2022/03/24 03:09:02;;;;;;;1.45;1.35;;;5.30;99.80;;;;;;4403362;32;20058;-61
2022/03/24 03:11:30;;;;;;;2.28;1.42;;;5.40;99.50;;;;;;4375936;32;20126;-60
2022/03/24 03:13:56;;;;;;;3.60;2.58;;;5.40;99.90;;;;;;4403910;32;20508;-60
2022/03/24 03:16:22;;;;;;;7.20;1.75;;;5.30;99.90;;;;;;4401952;32;21264;-59
2022/03/24 03:18:48;;;;;;;1.30;0.88;;;5.40;99.90;;;;;;4391248;32;20459;-61
2022/03/24 03:21:14;;;;;;;2.75;1.95;;;5.50;99.80;;;;;;4400375;32;20077;-60
2022/03/24 03:23:40;;;;;;;3.80;1.27;;;5.50;99.60;;;;;;4404189;32;20093;-62
2022/03/24 03:26:06;;;;;;;6.87;1.80;;;5.50;99.80;;;;;;4403339;32;20143;-61
2022/03/24 03:28:32;;;;;;;0.50;0.50;;;5.50;99.80;;;;;;4402683;32;20077;-59
2022/03/24 03:30:58;;;;;;;1.02;0.93;;;5.50;99.90;;;;;;4391657;32;20102;-60
2022/03/24 03:33:24;;;;;;;10.13;2.85;;;5.50;99.90;;;;;;4389142;32;20522;-60
2022/03/24 03:35:50;;;;;;;0.70;0.70;;;5.30;99.90;;;;;;4392170;32;20108;-60
2022/03/24 03:38:15;;;;;;;3.47;1.33;;;5.30;99.90;;;;;;4404153;32;20066;-59
2022/03/24 03:40:41;;;;;;;1.80;1.42;;;5.30;99.90;;;;;;4405285;32;20101;-60
2022/03/24 03:43:08;;;;;;;7.10;2.55;;;5.20;99.90;;;;;;4389912;32;20766;-60
2022/03/24 03:45:33;;;;;;;3.90;1.08;;;5.10;99.90;;;;;;4405456;32;20065;-60
2022/03/24 03:47:59;;;;;;;0.70;0.70;;;5.10;99.90;;;;;;4389528;32;20149;-60
2022/03/24 03:50:25;;;;;;;4.03;1.87;;;4.80;99.90;;;;;;4402544;32;21610;-59
2022/03/24 03:52:51;;;;;;;0.80;0.80;;;4.50;99.90;;;;;;4403192;32;20115;-59
2022/03/24 03:55:17;;;;;;;1.80;1.25;;;4.40;99.90;;;;;;4404364;32;20077;-60
2022/03/24 03:57:42;;;;;;;1.23;1.12;;;4.60;99.90;;;;;;4404163;32;20065;-63
2022/03/24 04:01:08;;;;;;;5.60;2.83;;;4.70;99.90;;;;;;4401758;32;20174;-60
2022/03/24 04:02:54;;;;;;;1.40;1.30;;;4.60;99.90;;;;;;4390033;32;20442;-59
2022/03/24 04:05:25;;;;;;;1.23;1.00;;;4.40;99.90;;;;;;4402858;32;20070;-60
2022/03/24 04:07:51;;;;;;;0.45;0.45;;;4.30;99.90;;;;;;4401262;32;20069;-59
2022/03/24 04:10:17;;;;;;;0.98;0.93;;;4.40;99.90;;;;;;4403019;32;20094;-59
2022/03/24 04:12:43;;;;;;;2.67;1.60;;;4.50;99.90;;;;;;4389176;32;20085;-60
2022/03/24 04:15:09;;;;;;;1.70;1.50;;;4.50;99.90;;;;;;4400509;32;20128;-59
2022/03/24 04:17:35;;;;;;;2.05;0.98;;;4.50;99.90;;;;;;4399564;32;20529;-59
2022/03/24 04:20:00;;;;;;;4.95;1.70;;;4.40;99.90;;;;;;4400367;32;20407;-59
2022/03/24 04:22:26;;;;;;;6.07;2.42;;;4.40;99.90;;;;;;4390920;32;20077;-60
2022/03/24 04:24:52;;;;;;;6.37;1.70;;;4.30;99.90;;;;;;4404224;32;21375;-60
2022/03/24 04:27:17;;;;;;;0.85;0.85;;;4.20;99.90;;;;;;4402498;32;20429;-60
2022/03/24 04:29:42;;;;;;;3.45;2.05;;;4.10;99.90;;;;;;4403329;32;20125;-60
2022/03/24 04:32:08;;;;;;;4.10;1.17;;;4.00;99.90;;;;;;4400408;32;20065;-60
2022/03/24 04:34:34;;;;;;;1.65;1.23;;;4.20;99.90;;;;;;4401725;32;20069;-59
2022/03/24 04:36:59;;;;;;;0.80;0.80;;;4.40;99.90;;;;;;4402276;32;20082;-60
2022/03/24 04:39:25;;;;;;;3.80;1.77;;;4.40;99.90;;;;;;4402541;32;20424;-60
2022/03/24 04:41:51;;;;;;;2.08;1.15;;;4.20;99.90;;;;;;4400061;32;20086;-58
2022/03/24 04:44:17;;;;;;;5.45;2.22;;;4.00;99.90;;;;;;4403829;32;20442;-60
2022/03/24 04:46:43;;;;;;;3.53;2.28;;;3.90;99.90;;;;;;4400905;32;20078;-60
2022/03/24 04:49:09;;;;;;;1.65;1.33;;;3.90;99.90;;;;;;4400465;32;20069;-59
2022/03/24 04:51:34;;;;;;;8.25;3.65;;;4.10;99.90;;;;;;4388823;32;20088;-58
2022/03/24 04:54:00;;;;;;;2.12;1.40;;;4.10;99.90;;;;;;4395664;32;20070;-60
2022/03/24 04:56:26;;;;;;;41.00;3.83;;;4.10;99.90;;;;;;4401736;32;20066;-60
2022/03/24 04:58:52;;;;;;;1.70;1.37;;;4.10;99.90;;;;;;4400422;32;20058;-59
2022/03/24 05:01:17;;;;;;;2.10;1.52;;;4.30;99.90;;;;;;4404257;32;20130;-60
2022/03/24 05:03:46;;;;;;;1.67;1.23;;;4.40;99.90;;;;;;4389174;32;20120;-59
2022/03/24 05:06:12;;;;;;;1.77;1.20;;;4.40;99.90;;;;;;4402334;32;20062;-60
2022/03/24 05:08:37;;;;;;;0.65;0.65;;;4.50;99.90;;;;;;4401106;32;20082;-60
2022/03/24 05:11:03;;;;;;;2.10;1.65;;;4.50;99.90;;;;;;4401115;32;20398;-60
2022/03/24 05:13:28;;;;;;;1.52;1.37;;;4.60;99.90;;;;;;4399353;32;20105;-59
2022/03/24 05:15:56;;;;;;;1.40;1.25;;;4.40;99.90;;;;;;4398572;32;20079;-60
2022/03/24 05:18:24;;;;;;;3.58;1.20;;;4.30;99.90;;;;;;4400336;32;20112;-60
2022/03/24 05:20:50;;;;;;;3.17;2.28;;;4.30;99.90;;;;;;4386703;32;20152;-59
2022/03/24 05:23:16;;;;;;;2.53;1.90;;;4.40;99.90;;;;;;4385335;32;20415;-59
2022/03/24 05:25:42;;;;;;;2.25;1.08;;;4.40;99.90;;;;;;4402519;32;20081;-59
2022/03/24 05:28:08;;;;;;;1.58;1.08;;;4.40;99.90;;;;;;4404100;32;20117;-60
2022/03/24 05:30:34;;;;;;;2.17;1.48;;;4.40;99.90;;;;;;4391612;32;20213;-60
2022/03/24 05:32:59;;;;;;;2.87;1.52;;;4.40;99.90;;;;;;4405352;32;20149;-60
2022/03/24 05:35:24;;;;;;;4.70;1.85;;;4.40;99.90;;;;;;4404136;32;20070;-59
2022/03/24 05:37:50;;;;;;;10.88;2.95;;;4.30;99.90;;;;;;4404050;32;20062;-59
2022/03/24 05:40:15;;;;;;;1.55;1.40;;;4.10;99.90;;;;;;4403869;32;20434;-59
2022/03/24 05:42:41;;;;;;;2.30;1.37;;;4.20;99.90;;;;;;4377350;32;20093;-59
2022/03/24 05:45:07;;;;;;;12.68;3.62;;;4.30;99.90;;;;;;4389721;32;20069;-60
2022/03/24 05:47:33;;;;;;;1.12;0.93;;;4.40;99.90;;;;;;4395688;32;20515;-60
2022/03/24 05:49:58;;;;;;;2.78;1.40;;;4.40;99.90;;;;;;4405796;32;20065;-60
2022/03/24 05:52:24;;;;;;;2.50;1.15;;;4.50;99.90;;;;;;4405967;32;20069;-60
2022/03/24 05:54:49;;;;;;;1.15;1.10;;;4.60;99.90;;;;;;4403652;32;20074;-60
2022/03/24 05:57:15;;;;;;;2.00;1.30;;;4.70;99.90;;;;;;4401929;32;20066;-60
2022/03/24 05:59:40;;;;;;;2.33;1.58;;;4.70;99.90;;;;;;4401602;32;20529;-60
2022/03/24 06:02:06;;;;;;;4.18;2.87;;;4.80;99.90;;;;;;4396978;32;20824;-60
2022/03/24 06:04:32;;;;;;;2.45;1.12;;;4.90;99.90;;;;;;4376596;32;20074;-60
2022/03/24 06:06:58;;;;;;;6.22;2.65;;;5.00;99.90;;;;;;4404143;32;20137;-60
2022/03/24 06:09:24;;;;;;;4.60;2.00;;;5.10;99.90;;;;;;4389075;32;20069;-59
2022/03/24 06:11:52;;;;;;;4.68;1.75;;;5.10;99.90;;;;;;4402005;32;20663;-60
2022/03/24 06:14:17;;;;;;;8.57;4.00;;;5.20;99.90;;;;;;4388395;32;20097;-59
2022/03/24 06:16:43;;;;;;;4.43;1.55;;;5.20;99.90;;;;;;4380759;32;20074;-59
2022/03/24 06:19:09;;;;;;;3.47;1.62;;;5.30;99.90;;;;;;4398331;32;20480;-59
2022/03/24 06:21:35;;;;;;;2.55;1.42;;;5.30;99.90;;;;;;4389404;32;20545;-59
2022/03/24 06:24:02;;;;;;;1.20;1.08;;;5.30;99.90;;;;;;4401845;32;20089;-60
2022/03/24 06:26:29;;;;;;;4.10;1.80;;;5.40;99.90;;;;;;4387759;32;20082;-60
2022/03/24 06:28:55;;;;;;;4.95;1.85;;;5.50;99.90;;;;;;4398972;32;20549;-59
2022/03/24 06:31:21;;;;;;;2.03;1.60;;;5.70;99.90;;;;;;4380159;32;21061;-60
2022/03/24 06:33:48;;;;;;;17.23;2.55;;;5.90;99.90;;;;;;4399819;32;20093;-60
2022/03/24 06:36:15;;;;;;;1.48;1.35;;;6.10;99.90;;;;;;4398974;32;20102;-60
2022/03/24 06:38:43;;;;;;;7.47;2.72;;;6.30;99.90;;;;;;4384364;32;20105;-60
2022/03/24 06:41:09;;;;;;;6.60;2.67;;;6.40;99.90;;;;;;4375247;32;20211;-60
2022/03/24 06:43:36;;;;;;;2.17;1.70;;;6.50;99.90;;;;;;4378203;32;20557;-60
2022/03/24 06:46:02;;;;;;;5.45;2.37;;;6.70;99.90;;;;;;4373733;32;20074;-61
2022/03/24 06:48:28;;;;;;;0.93;0.90;;;6.80;99.90;;;;;;4379589;32;20697;-60
2022/03/24 06:50:53;;;;;;;2.10;1.80;;;6.90;99.90;;;;;;4389899;32;20128;-60
2022/03/24 06:53:19;;;;;;;6.70;2.25;;;7.00;99.90;;;;;;4387577;32;20278;-61
2022/03/24 06:55:44;;;;;;;9.20;3.17;;;7.00;99.90;;;;;;4373662;32;20101;-60
2022/03/24 06:58:10;;;;;;;4.53;1.80;;;7.10;99.90;;;;;;4381219;32;20101;-61
2022/03/24 07:00:36;;;;;;;3.80;2.30;;;7.20;99.90;;;;;;4357215;32;20360;-63
2022/03/24 07:03:01;;;;;;;2.08;1.55;;;7.30;99.90;;;;;;4372364;32;20523;-62
2022/03/24 07:05:27;;;;;;;2.30;1.70;;;7.30;99.90;;;;;;4375863;32;20171;-63
2022/03/24 07:07:54;;;;;;;5.32;1.80;;;7.40;99.90;;;;;;4364258;32;20970;-61
2022/03/24 07:10:20;;;;;;;5.22;2.60;;;7.40;99.90;;;;;;4371811;32;20821;-61
2022/03/24 07:12:48;;;;;;;5.00;2.45;;;7.50;99.90;;;;;;4354205;32;20635;-60
2022/03/24 07:15:14;;;;;;;2.67;2.10;;;7.70;99.90;;;;;;4362269;32;20085;-59
2022/03/24 07:17:39;;;;;;;4.05;1.98;;;7.80;99.90;;;;;;4373214;32;20089;-61
2022/03/24 07:20:06;;;;;;;22.77;1.87;;;7.90;99.90;;;;;;4376057;32;20090;-61
2022/03/24 07:22:34;;;;;;;19.50;1.87;;;7.90;99.90;;;;;;4367324;32;20090;-60
2022/03/24 07:25:00;;;;;;;5.62;2.20;;;8.10;99.90;;;;;;4365778;32;20086;-62
2022/03/24 07:27:26;;;;;;;5.32;2.15;;;8.00;99.90;;;;;;4365391;32;20262;-61
2022/03/24 07:29:52;;;;;;;3.83;2.30;;;8.10;99.90;;;;;;4370978;32;20483;-62
2022/03/24 07:32:19;;;;;;;5.70;2.97;;;8.30;99.90;;;;;;4358659;32;20165;-61
2022/03/24 07:34:45;;;;;;;1.98;1.08;;;8.30;99.50;;;;;;4362038;32;93323;-62
2022/03/24 07:37:11;;;;;;;6.65;2.97;;;8.50;99.00;;;;;;4377661;32;20864;-62
2022/03/24 07:39:36;;;;;;;3.30;2.00;;;8.60;98.40;;;;;;4379472;32;20599;-60
2022/03/24 07:42:02;;;;;;;2.05;1.87;;;8.70;98.80;;;;;;4365700;32;20090;-61
2022/03/24 07:44:27;;;;;;;2.60;1.62;;;8.70;98.80;;;;;;4380810;32;20089;-60
2022/03/24 07:46:53;;;;;;;3.00;1.98;;;8.80;98.20;;;;;;4376200;32;20101;-62
2022/03/24 07:49:19;;;;;;;4.00;2.03;;;8.90;98.00;;;;;;4379266;32;20177;-62
2022/03/24 07:51:45;;;;;;;5.00;1.65;;;8.90;98.20;;;;;;4368646;32;20608;-63
2022/03/24 07:54:11;;;;;;;6.12;2.80;;;9.00;98.20;;;;;;4363190;32;20115;-61
2022/03/24 07:56:37;;;;;;;6.80;2.20;;;9.20;97.40;;;;;;4381635;32;20085;-62
2022/03/24 07:59:05;;;;;;;4.47;2.22;;;9.40;97.20;;;;;;4357874;32;22117;-62
2022/03/24 08:01:32;;;;;;;3.08;2.05;;;9.50;96.50;;;;;;4379397;32;20110;-62
2022/03/24 08:04:00;;;;;;;6.65;2.85;;;9.50;96.10;;;;;;4354593;32;20070;-60
2022/03/24 08:06:26;;;;;;;3.37;2.22;;;9.70;96.60;;;;;;4380381;32;20098;-62
2022/03/24 08:08:52;;;;;;;5.53;1.75;;;9.90;96.00;;;;;;4369727;32;20086;-62
2022/03/24 08:11:18;;;;;;;11.48;2.78;;;9.90;95.80;;;;;;4365325;32;20078;-61
2022/03/24 08:13:47;;;;;;;3.22;2.17;;;10.00;95.70;;;;;;4381655;32;20086;-61
2022/03/24 08:16:14;;;;;;;4.85;1.92;;;10.10;95.80;;;;;;4380802;32;20616;-60
2022/03/24 08:18:39;;;;;;;5.70;2.20;;;10.10;95.10;;;;;;4377711;32;20536;-59
2022/03/24 08:21:05;;;;;;;3.00;1.98;;;10.20;94.40;;;;;;4380086;32;20183;-60
2022/03/24 08:23:31;;;;;;;10.82;2.80;;;10.30;94.10;;;;;;4378448;32;21756;-62
2022/03/24 08:25:56;;;;;;;4.80;2.62;;;10.40;94.70;;;;;;4380803;32;20262;-64
2022/03/24 08:28:22;;;;;;;3.12;2.17;;;10.50;94.10;;;;;;4377961;32;20477;-62
2022/03/24 08:30:47;;;;;;;9.95;2.40;;;10.70;94.00;;;;;;4373374;32;20280;-61
2022/03/24 08:33:13;;;;;;;6.00;1.92;;;10.70;93.30;;;;;;4375116;32;20078;-63
2022/03/24 08:35:40;;;;;;;6.00;2.83;;;10.80;93.20;;;;;;4364928;32;20185;-61
2022/03/24 08:38:06;;;;;;;7.15;2.20;;;10.90;93.40;;;;;;4388583;32;20105;-62
2022/03/24 08:40:31;;;;;;;21.42;3.58;;;11.10;92.70;;;;;;4385372;32;20391;-63
2022/03/24 08:42:57;;;;;;;4.90;2.40;;;11.20;92.30;;;;;;4368272;32;20074;-62
2022/03/24 08:45:23;;;;;;;7.90;2.83;;;11.20;92.30;;;;;;4375130;32;20310;-64
2022/03/24 08:47:48;;;;;;;2.08;1.42;;;11.20;92.00;;;;;;4378500;32;20431;-63
2022/03/24 08:50:14;;;;;;;31.67;3.62;;;11.30;91.90;;;;;;4376104;32;20454;-64
2022/03/24 08:52:41;;;;;;;5.15;2.53;;;11.40;91.80;;;;;;4382977;32;20415;-63
2022/03/24 08:55:09;;;;;;;8.30;3.65;;;11.50;91.40;;;;;;4375054;32;20086;-65
2022/03/24 08:57:36;;;;;;;6.45;2.95;;;11.60;90.90;;;;;;4370189;32;20074;-62
2022/03/24 09:00:14;;;;;;;3.97;1.62;;;11.70;90.90;;;;;;4383183;32;20727;-63
2022/03/24 09:02:40;;;;;;;12.48;3.75;;;11.90;90.70;;;;;;4386541;32;20704;-63
2022/03/24 09:05:06;;;;;;;5.90;3.55;;;12.00;90.30;;;;;;4372684;32;20085;-63
2022/03/24 09:07:32;;;;;;;5.62;2.60;;;12.10;90.10;;;;;;4373735;32;20141;-64
2022/03/24 09:09:57;;;;;;;0.98;0.98;;;12.30;89.20;;;;;;4392093;32;20157;-65
2022/03/24 09:12:23;;;;;;;11.45;2.65;;;12.40;89.00;;;;;;4388618;32;20787;-65
2022/03/24 09:14:49;;;;;;;7.80;3.17;;;12.40;89.10;;;;;;4389315;32;20647;-63
2022/03/24 09:17:14;;;;;;;5.32;2.95;;;12.70;87.80;;;;;;4390475;32;20081;-63
2022/03/24 09:19:40;;;;;;;11.43;1.98;;;12.80;85.90;;;;;;4389663;32;20177;-62
2022/03/24 09:22:06;;;;;;;18.67;4.87;;;12.80;85.70;;;;;;4377889;32;20082;-62
2022/03/24 09:24:32;;;;;;;5.20;2.28;;;13.00;85.20;;;;;;4385189;32;20498;-62
2022/03/24 09:26:58;;;;;;;8.20;2.80;;;13.10;83.80;;;;;;4379215;32;20525;-62
2022/03/24 09:29:23;;;;;;;6.32;2.25;;;13.10;83.60;;;;;;4388137;32;20073;-61
2022/03/24 09:31:50;;;;;;;9.77;3.35;;;13.30;83.20;;;;;;4391127;32;20810;-64
2022/03/24 09:34:16;;;;;;;5.60;2.70;;;13.50;82.30;;;;;;4374941;32;20065;-62
2022/03/24 09:36:41;;;;;;;3.12;1.92;;;13.70;80.90;;;;;;4387906;32;20093;-62
2022/03/24 09:39:09;;;;;;;10.38;2.15;;;13.60;81.00;;;;;;4368983;32;20535;-63
2022/03/24 09:41:35;;;;;;;2.70;2.37;;;13.90;80.60;;;;;;4388679;32;20074;-62
2022/03/24 09:44:01;;;;;;;12.05;2.42;;;14.10;78.70;;;;;;4371652;32;20129;-63
2022/03/24 09:46:28;;;;;;;4.30;1.83;;;14.20;78.60;;;;;;4388734;32;20306;-62
2022/03/24 09:48:54;;;;;;;4.10;2.35;;;14.10;78.30;;;;;;4370646;32;20127;-63
2022/03/24 09:51:22;;;;;;;10.10;2.80;;;14.40;76.40;;;;;;4381986;32;20440;-62
2022/03/24 09:53:48;;;;;;;4.18;2.47;;;14.40;73.80;;;;;;4375081;32;21047;-62
2022/03/24 09:56:13;;;;;;;5.05;2.42;;;14.40;74.00;;;;;;4387262;32;20422;-62
2022/03/24 09:58:42;;;;;;;5.43;3.10;;;14.60;73.90;;;;;;4371960;32;21564;-62
2022/03/24 10:01:07;;;;;;;5.75;2.53;;;14.90;71.70;;;;;;4389901;32;20538;-64
2022/03/24 10:03:33;;;;;;;3.75;2.33;;;14.80;69.40;;;;;;4385900;32;20230;-63
2022/03/24 10:06:04;;;;;;;9.25;3.10;;;14.80;69.30;;;;;;4384788;32;20093;-61
2022/03/24 10:08:30;;;;;;;2.08;1.87;;;14.90;69.00;;;;;;4386571;32;20174;-62
2022/03/24 10:10:59;;;;;;;6.65;4.45;;;15.50;68.00;;;;;;4386403;32;20078;-64
2022/03/24 10:13:42;;;;;;;5.05;3.15;;;15.60;65.50;;;;;;4385975;32;20297;-64
2022/03/24 10:16:09;;;;;;;3.83;2.30;;;15.70;64.80;;;;;;4387090;32;20085;-64
2022/03/24 10:18:34;;;;;;;8.45;1.17;;;15.70;63.10;;;;;;4376249;32;20087;-63
2022/03/24 10:21:03;;;;;;;5.22;2.45;;;15.70;60.40;;;;;;4370801;32;20093;-62
2022/03/24 10:23:33;;;;;;;2.87;1.80;;;16.00;59.30;;;;;;4375851;32;20085;-63
2022/03/24 10:26:03;;;;;;;10.60;4.18;;;16.00;59.70;;;;;;4379735;32;20386;-62
2022/03/24 10:28:29;;;;;;;5.77;2.03;;;16.00;61.10;;;;;;4387056;32;20086;-63
2022/03/24 10:30:58;;;;;;;2.78;1.83;;;15.90;61.30;;;;;;4377284;32;20133;-62
2022/03/24 10:33:30;;;;;;;5.65;3.37;;;16.00;61.30;;;;;;4381161;32;20125;-61
2022/03/24 10:36:18;;;;;;;1.73;1.62;;;16.30;59.70;;;;;;4365834;32;20089;-64
2022/03/24 10:38:46;;;;;;;8.13;2.90;;;16.50;58.50;;;;;;4364624;32;20122;-62
2022/03/24 10:41:14;;;;;;;8.50;1.62;;;16.80;56.50;;;;;;4373770;32;20749;-64
2022/03/24 10:43:40;;;;;;;4.15;2.67;;;16.70;57.20;;;;;;4352407;32;20082;-62
2022/03/24 10:46:24;;;;;;;1.85;1.37;;;16.80;56.30;;;;;;4354545;32;20069;-61
2022/03/24 10:48:50;;;;;;;4.95;1.85;;;17.10;56.20;;;;;;4344022;32;20078;-61
2022/03/24 10:51:33;;;;;;;13.77;2.78;;;17.20;55.60;;;;;;4369945;32;20164;-61
2022/03/24 10:54:22;;;;;;;7.40;1.67;;;17.40;56.50;;;;;;4380957;32;20101;-62
2022/03/24 10:57:03;;;;;;;2.55;1.90;;;17.00;53.70;;;;;;4377023;32;20089;-62
2022/03/24 10:59:33;;;;;;;2.45;1.60;;;16.70;56.30;;;;;;4365568;32;20151;-64
2022/03/24 11:01:59;;;;;;;1.15;1.05;;;17.00;54.90;;;;;;4378367;32;20340;-62
2022/03/24 11:04:25;;;;;;;1.52;1.23;;;17.20;52.60;;;;;;4366628;32;20225;-62
2022/03/24 11:06:51;;;;;;;3.40;2.17;;;17.50;52.20;;;;;;4382417;32;20179;-63
2022/03/24 11:09:23;;;;;;;6.95;1.55;;;17.70;52.10;;;;;;4376207;32;20085;-63
2022/03/24 11:12:08;;;;;;;1.83;1.35;;;18.10;51.60;;;;;;4367775;32;20160;-62
2022/03/24 11:14:39;;;;;;;2.83;2.22;;;18.10;51.10;;;;;;4353513;32;20508;-63
2022/03/24 11:17:05;;;;;;;2.42;1.05;;;18.20;51.20;;;;;;4370105;32;21818;-62
2022/03/24 11:19:32;;;;;;;9.95;2.65;;;18.50;51.00;;;;;;4379283;32;20141;-62
2022/03/24 11:21:58;;;;;;;3.70;2.08;;;18.50;50.70;;;;;;4384367;32;20139;-64
2022/03/24 11:24:24;;;;;;;4.32;2.30;;;18.30;50.40;;;;;;4384579;32;20432;-64
2022/03/24 11:26:50;;;;;;;6.10;2.10;;;18.30;50.60;;;;;;4387156;32;20098;-64
2022/03/24 11:29:17;;;;;;;3.72;2.17;;;18.50;51.20;;;;;;4381873;32;20475;-66
2022/03/24 11:31:45;;;;;;;4.10;1.92;;;18.80;49.80;;;;;;4388893;32;20081;-63
2022/03/24 11:34:11;;;;;;;1.45;1.25;;;18.90;51.10;;;;;;4359301;32;20074;-64
2022/03/24 11:36:36;;;;;;;1.73;1.58;;;19.30;49.90;;;;;;4367167;32;20510;-63
2022/03/24 11:39:06;;;;;;;2.53;1.50;;;19.10;49.80;;;;;;4390245;32;20101;-63
2022/03/24 11:41:44;;;;;;;9.13;4.15;;;19.70;49.40;;;;;;4390278;32;20588;-64
2022/03/24 11:44:35;;;;;;;4.28;1.85;;;19.90;49.70;;;;;;4379046;32;20109;-63
2022/03/24 11:47:13;;;;;;;1.55;1.45;;;20.00;47.50;;;;;;4381586;32;20820;-63
2022/03/24 11:49:39;;;;;;;1.50;0.98;;;20.00;47.00;;;;;;4374867;32;20087;-64
2022/03/24 11:52:07;;;;;;;4.85;2.10;;;20.10;48.60;;;;;;4358683;32;20455;-64
2022/03/24 11:54:36;;;;;;;4.87;1.95;;;20.20;48.70;;;;;;4375406;32;20518;-63
2022/03/24 11:57:23;;;;;;;5.62;2.97;;;20.40;47.60;;;;;;4371939;32;20090;-62
2022/03/24 11:59:51;;;;;;;3.05;2.05;;;20.60;46.30;;;;;;4364894;32;20092;-65
2022/03/24 12:02:19;;;;;;;2.60;1.48;;;20.90;46.20;;;;;;4382924;32;20075;-63
2022/03/24 12:04:47;;;;;;;4.57;1.27;;;21.10;46.30;;;;;;4367219;32;20069;-63
2022/03/24 12:07:17;;;;;;;6.53;3.17;;;21.20;45.90;;;;;;4365000;32;20865;-64
2022/03/24 12:10:03;;;;;;;3.25;1.55;;;21.30;45.00;;;;;;4386153;32;20132;-63
2022/03/24 12:12:29;;;;;;;0.70;0.70;;;21.20;44.00;;;;;;4380267;32;20081;-63
2022/03/24 12:14:55;;;;;;;5.50;2.20;;;21.50;44.00;;;;;;4349438;32;21161;-62
2022/03/24 12:17:26;;;;;;;4.07;2.03;;;21.40;43.50;;;;;;4368072;32;20810;-63
2022/03/24 12:19:53;;;;;;;1.02;0.93;;;21.70;44.60;;;;;;4373742;32;20090;-65
2022/03/24 12:22:29;;;;;;;3.58;1.55;;;21.70;44.20;;;;;;4367709;32;20384;-63
2022/03/24 12:25:00;;;;;;;0.70;0.70;;;22.00;45.10;;;;;;4387338;32;20078;-63
2022/03/24 12:27:27;;;;;;;2.37;1.40;;;22.30;43.90;;;;;;4385553;32;20073;-64
2022/03/24 12:30:14;;;;;;;3.08;1.52;;;22.40;43.40;;;;;;4391696;32;20078;-63
2022/03/24 12:32:41;;;;;;;3.40;1.90;;;22.20;42.90;;;;;;4369613;32;20077;-63
2022/03/24 12:35:07;;;;;;;6.20;2.03;;;22.30;43.60;;;;;;4377286;32;20110;-63
2022/03/24 12:37:35;;;;;;;2.90;1.27;;;22.40;43.90;;;;;;4384030;32;20770;-63
2022/03/24 12:40:10;;;;;;;2.00;0.82;;;22.80;41.20;;;;;;4381798;32;20691;-63
2022/03/24 12:42:54;;;;;;;6.15;1.40;;;22.50;42.70;;;;;;4380236;32;20352;-63
2022/03/24 12:45:26;;;;;;;2.25;0.93;;;22.80;41.40;;;;;;4356500;32;20175;-63
2022/03/24 12:47:55;;;;;;;4.35;1.40;;;22.90;40.20;;;;;;4383806;32;20862;-64
2022/03/24 12:50:24;;;;;;;1.23;1.05;;;22.90;41.20;;;;;;4376601;32;20175;-64
2022/03/24 12:52:55;;;;;;;1.08;0.98;;;23.40;40.40;;;;;;4385203;32;21059;-62
2022/03/24 12:55:32;;;;;;;1.62;1.42;;;23.90;40.00;;;;;;4387323;32;20786;-64